Terminal Aerodrome Forecast
Issued by NWS King Salmon, AK

Home | Current Version | Previous Version | Text Only | Print | Product List | Glossary On
Versions: 1 2 3 4 5 6 7 8 9 10 11 12 13 14 15 16 17 18
000
FTAK31 PANC 261742
TAFAKN
TAF
PAKN 261742Z 2618/2718 09005KT 6SM -RA BR SCT020 OVC050
      TEMPO 2618/2622 4SM -RA BR BKN020
     FM270700 VRB02KT P6SM VCSH OVC050=

USA.gov is the U.S. government's official web portal to all federal, state and local government web resources and services.